Flight Track Log - Related Links

Times and Time Zones

All times are in EDT time to prevent confusion due to time zone crossing. See the UAL3776 flight status page for this flight to view local times or setup timezone preferences in your user account.

Time Position Orientation Groundspeed Altitude Reporting Facility
EDT Latitude Longitude Course Direction KTS MPH feet Rate Location/Type
Tue 06:11:09 PM 41.9667 -87.9667 77° East 178 205 2,300  Level Chicago TRACON
Tue 06:12:15 PM 42.0167 -87.9667 360° North 246 283 4,900 1,350 Climbing Chicago TRACON
Tue 06:13:09 PM 42.0647 -87.9125 40° Northeast 283 326 5,000 1,179 Climbing Chicago Center
Tue 06:14:12 PM 42.1292 -87.8350 42° Northeast 289 333 7,200 1,968 Climbing Chicago Center
Tue 06:15:00 PM 42.0945 -87.1052 71° East  Level FlightAware Approximate
Tue 06:15:14 PM 42.1478 -87.7353 76° East 307 353 9,100  Level Chicago Center
Tue 06:16:00 PM 42.1147 -86.9453 77° East  Level FlightAware Approximate
Tue 06:16:16 PM 42.1408 -87.6058 94° East 319 367 11,600  Level Chicago Center
Tue 06:17:18 PM 42.1344 -87.4814 94° East 328 377 14,000 2,226 Climbing Chicago Center
Tue 06:18:20 PM 42.1281 -87.3547 94° East 336 387 16,200 1,452 Climbing Chicago Center
Tue 06:19:22 PM 42.1197 -87.2047 94° East 378 435 17,000 774 Climbing Chicago Center
Tue 06:20:24 PM 42.1131 -87.0392 93° East 434 499 17,800 1,210 Climbing Chicago Center
Tue 06:21:26 PM 42.1186 -86.8953 87° East 438 504 19,500 1,935 Climbing Chicago Center
Tue 06:22:28 PM 42.1253 -86.7019 87° East 434 499 21,800 1,920 Climbing Chicago Center
Tue 06:23:31 PM 42.1308 -86.5553 87° East 429 494 23,500 1,392 Climbing Chicago Center
Tue 06:24:33 PM 42.1353 -86.3950 88° East 429 494 24,700 1,258 Climbing Chicago Center
Tue 06:25:35 PM 42.1406 -86.2300 87° East 436 502 26,100 1,452 Climbing Chicago Center
Tue 06:26:37 PM 42.1433 -86.0283 89° East 447 514 27,700 1,355 Climbing Chicago Center
Tue 06:27:39 PM 42.1414 -85.8733 91° East 448 516 28,900 1,065 Climbing Chicago Center
Tue 06:28:41 PM 42.1408 -85.7053 90° East 450 518 29,900 1,065 Climbing Chicago Center
Tue 06:29:43 PM 42.1378 -85.4978 91° East 463 533 31,100 1,065 Climbing Chicago Center
Tue 06:30:45 PM 42.1364 -85.3247 91° East 465 535 32,100 864 Climbing Chicago Center
Tue 06:31:48 PM 42.1356 -85.1453 90° East 480 552 32,900 432 Climbing Chicago Center
Tue 06:32:50 PM 42.1328 -84.9675 91° East 480 552 33,000 48 Climbing Chicago Center
Tue 06:33:52 PM 42.1292 -84.7825 91° East 492 566 33,000  Level Chicago Center
Tue 06:34:54 PM 42.1250 -84.5547 91° East 508 585 33,000  Level Chicago Center
Tue 06:35:36 PM 42.1250 -84.4508 90° East 506 582 33,000  Level Cleveland Center
Tue 06:36:38 PM 42.1475 -84.2658 81° East 488 562 33,000  Level Cleveland Center
Tue 06:37:40 PM 42.1661 -84.0900 82° East 479 551 33,000  Level Cleveland Center
Tue 06:38:42 PM 42.1853 -83.9150 82° East 478 550 33,000  Level Cleveland Center
Tue 06:39:44 PM 42.2075 -83.7025 82° East 479 551 33,000  Level Cleveland Center
Tue 06:40:46 PM 42.2267 -83.5158 82° East 498 573 33,000  Level Cleveland Center
Tue 06:41:48 PM 42.2269 -83.3269 90° East 502 578 33,000  Level Cleveland Center
Tue 06:42:50 PM 42.2236 -83.1200 91° East 502 578 33,000  Level Cleveland Center
Tue 06:43:52 PM 42.2206 -82.9317 91° East 502 578 33,000 -290 Level Cleveland Center
Tue 06:44:54 PM 42.2175 -82.7458 91° East 501 577 32,400 -816 Descending Cleveland Center
Tue 06:45:57 PM 42.2136 -82.5625 92° East 494 568 31,300 -672 Descending Cleveland Center
Tue 06:46:59 PM 42.2103 -82.3806 91° East 493 567 31,000 -145 Descending Cleveland Center
Tue 06:48:01 PM 42.2044 -82.2050 93° East 473 544 31,000  Level Cleveland Center
Tue 06:49:03 PM 42.1997 -81.9964 92° East 478 550 31,000  Level Cleveland Center
Tue 06:50:05 PM 42.1936 -81.8106 92° East 485 558 31,000  Level Cleveland Center
Tue 06:51:07 PM 42.1889 -81.6219 92° East 492 566 31,000 -629 Level Cleveland Center
Tue 06:52:09 PM 42.1831 -81.4333 92° East 494 568 29,700 -1,452 Descending Cleveland Center
Tue 06:53:11 PM 42.1764 -81.2481 93° East 494 568 28,000 -1,306 Descending Cleveland Center
Tue 06:54:13 PM 42.1692 -81.0389 93° East 481 554 27,000 -480 Descending Cleveland Center
Tue 06:55:16 PM 42.1639 -80.8719 92° East 452 520 27,000  Level Cleveland Center
Tue 06:56:18 PM 42.1594 -80.7000 92° East 451 519 27,000  Level Cleveland Center
Tue 06:57:20 PM 42.1961 -80.5322 74° East 462 532 27,000 -339 Level Cleveland Center
Tue 06:58:22 PM 42.2358 -80.3661 72° East 462 532 26,300 -726 Descending Cleveland Center
Tue 06:59:24 PM 42.2742 -80.2067 72° East 447 514 25,500 -629 Descending Cleveland Center
Tue 07:00:26 PM 42.3119 -80.0500 72° East 437 503 25,000 -484 Descending Cleveland Center
Tue 07:01:28 PM 42.3469 -79.8986 73° East 425 489 24,500 -1,161 Descending Cleveland Center
Tue 07:02:30 PM 42.3925 -79.7031 72° East 453 521 22,600 -1,694 Descending Cleveland Center
Tue 07:03:32 PM 42.4317 -79.5331 73° East 470 541 21,000 -1,632 Descending Cleveland Center
Tue 07:04:35 PM 42.4728 -79.3558 72° East 456 525 19,200 -1,584 Descending Cleveland Center
Tue 07:05:37 PM 42.5319 -79.2194 59° Northeast 427 491 17,700 -1,500 Descending Cleveland Center
Tue 07:06:39 PM 42.6114 -79.1050 47° Northeast 419 482 16,100 -1,548 Descending Cleveland Center
Tue 07:07:41 PM 42.6878 -78.9950 47° Northeast 405 466 14,500 -1,561 Descending Cleveland Center
Tue 07:08:42 PM 42.7628 -78.8878 46° Northeast 395 455 12,900 -1,610 Descending Cleveland Center
Tue 07:09:44 PM 42.8356 -78.7814 47° Northeast 386 444 11,200 -968 Descending Cleveland Center
Tue 07:10:46 PM 42.9069 -78.6783 47° Northeast 375 432 10,900 -823 Descending Cleveland Center
Tue 07:11:48 PM 42.9547 -78.5592 61° Northeast 310 357 9,500 -1,403 Descending Cleveland Center
Tue 07:12:50 PM 42.9836 -78.4511 70° East 292 336 8,000 -1,500 Descending Cleveland Center
Tue 07:13:24 PM 42.9997 -78.3914 70° East 282 325 7,100 -561 Descending Cleveland Center
Tue 07:14:37 PM 43.0356 -78.2650 69° East 298 343 7,000 -67 Descending Cleveland Center
Tue 07:14:54 PM 43.0408 -78.2450 70° East 293 337 7,000  Level Cleveland Center
Tue 07:15:44 PM 43.0703 -78.1442 68° East 311 358 7,000  Level Cleveland Center
Tue 07:15:56 PM 43.0731 -78.1356 66° East 305 351 7,000 -1,500 Level Cleveland Center
Tue 07:16:44 PM 43.1125 -78.0456 59° Northeast 303 349 5,500 -1,645 Descending Cleveland Center
Tue 07:16:58 PM 43.1164 -78.0378 56° Northeast 304 350 5,300 -1,770 Descending Cleveland Center
Tue 07:17:45 PM 43.1564 -77.9472 59° Northeast 302 348 3,700 -1,645 Descending Cleveland Center
Tue 07:18:00 PM 43.1606 -77.9386 56° Northeast 304 350 3,600 -1,082 Descending Cleveland Center
Tue 07:18:46 PM 43.1897 -77.8489 66° East 275 316 2,600 -1,065 Descending Cleveland Center
Tue 07:19:02 PM 43.1933 -77.8186 81° East 290 334 2,500 -100 Descending Cleveland Center
Tue 07:19:46 PM 43.2067 -77.7458 76° East 276 318 2,500  Level Cleveland Center
Tue 07:20:04 PM 43.2103 -77.7161 81° East 282 325 2,500  Level Cleveland Center
Tue 07:20:47 PM 43.2058 -77.6617 96° East 188 216 2,500 -408 Level Cleveland Center
Tue 07:21:47 PM 43.1725 -77.6439 159° South 118 136 1,800 -593 Descending Cleveland Center
Tue 07:22:08 PM 43.1619 -77.6428 176° South 164 189 1,700 -787 Descending Cleveland Center
Tue 07:22:48 PM 43.1381 -77.6608 209° Southwest 134 154 1,000 -968 Descending Cleveland Center
Tue 07:23:10 PM 43.1286 -77.6664 203° Southwest 144 166 700 -818 Descending Cleveland Center

Login

Don't have an account? Register now (free) for customized features, flight alerts, and more!